sensor_id;sensor_type;location;lat;lon;timestamp;P1;durP1;ratioP1;P2;durP2;ratioP2
52126;SDS011;38120;53.176;6.614;2023-05-10T00:01:42;12.40;;;7.35;;
52126;SDS011;38120;53.176;6.614;2023-05-10T00:04:07;10.67;;;7.60;;
52126;SDS011;38120;53.176;6.614;2023-05-10T00:06:33;10.88;;;7.50;;
52126;SDS011;38120;53.176;6.614;2023-05-10T00:08:59;10.07;;;7.55;;
52126;SDS011;38120;53.176;6.614;2023-05-10T00:11:25;13.23;;;8.10;;
52126;SDS011;38120;53.176;6.614;2023-05-10T00:13:50;11.57;;;8.20;;
52126;SDS011;38120;53.176;6.614;2023-05-10T00:16:16;9.93;;;7.60;;
52126;SDS011;38120;53.176;6.614;2023-05-10T00:18:42;11.00;;;8.02;;
52126;SDS011;38120;53.176;6.614;2023-05-10T00:21:08;10.55;;;7.15;;
52126;SDS011;38120;53.176;6.614;2023-05-10T00:23:33;11.55;;;7.45;;
52126;SDS011;38120;53.176;6.614;2023-05-10T00:25:59;12.13;;;8.10;;
52126;SDS011;38120;53.176;6.614;2023-05-10T00:28:25;11.47;;;8.13;;
52126;SDS011;38120;53.176;6.614;2023-05-10T00:30:52;12.07;;;7.72;;
52126;SDS011;38120;53.176;6.614;2023-05-10T00:33:18;12.25;;;8.63;;
52126;SDS011;38120;53.176;6.614;2023-05-10T00:35:44;14.70;;;7.97;;
52126;SDS011;38120;53.176;6.614;2023-05-10T00:38:10;12.07;;;9.02;;
52126;SDS011;38120;53.176;6.614;2023-05-10T00:40:36;10.93;;;7.80;;
52126;SDS011;38120;53.176;6.614;2023-05-10T00:43:02;12.25;;;8.68;;
52126;SDS011;38120;53.176;6.614;2023-05-10T00:45:28;11.55;;;8.32;;
52126;SDS011;38120;53.176;6.614;2023-05-10T00:47:58;12.55;;;9.00;;
52126;SDS011;38120;53.176;6.614;2023-05-10T00:50:27;11.82;;;8.68;;
52126;SDS011;38120;53.176;6.614;2023-05-10T00:55:19;13.43;;;7.85;;
52126;SDS011;38120;53.176;6.614;2023-05-10T00:57:51;12.55;;;8.38;;
52126;SDS011;38120;53.176;6.614;2023-05-10T01:00:18;11.93;;;8.27;;
52126;SDS011;38120;53.176;6.614;2023-05-10T01:02:44;11.00;;;7.63;;
52126;SDS011;38120;53.176;6.614;2023-05-10T01:05:11;11.75;;;7.80;;
52126;SDS011;38120;53.176;6.614;2023-05-10T01:07:37;9.73;;;7.32;;
52126;SDS011;38120;53.176;6.614;2023-05-10T01:10:04;10.60;;;7.25;;
52126;SDS011;38120;53.176;6.614;2023-05-10T01:12:31;9.60;;;6.82;;
52126;SDS011;38120;53.176;6.614;2023-05-10T01:14:57;10.57;;;6.65;;
52126;SDS011;38120;53.176;6.614;2023-05-10T01:17:23;10.02;;;6.90;;
52126;SDS011;38120;53.176;6.614;2023-05-10T01:19:49;9.60;;;6.32;;
52126;SDS011;38120;53.176;6.614;2023-05-10T01:33:27;9.88;;;5.75;;
52126;SDS011;38120;53.176;6.614;2023-05-10T01:38:53;10.70;;;6.63;;
52126;SDS011;38120;53.176;6.614;2023-05-10T01:41:49;9.27;;;6.25;;
52126;SDS011;38120;53.176;6.614;2023-05-10T01:47:17;9.15;;;6.43;;
52126;SDS011;38120;53.176;6.614;2023-05-10T01:49:50;10.20;;;6.80;;
52126;SDS011;38120;53.176;6.614;2023-05-10T01:52:18;10.90;;;7.03;;
52126;SDS011;38120;53.176;6.614;2023-05-10T01:55:01;9.30;;;6.93;;
52126;SDS011;38120;53.176;6.614;2023-05-10T01:57:34;10.45;;;7.40;;
52126;SDS011;38120;53.176;6.614;2023-05-10T02:00:02;11.88;;;8.68;;
52126;SDS011;38120;53.176;6.614;2023-05-10T02:02:30;10.07;;;7.00;;
52126;SDS011;38120;53.176;6.614;2023-05-10T02:05:03;12.38;;;7.47;;
52126;SDS011;38120;53.176;6.614;2023-05-10T02:07:32;11.50;;;7.22;;
52126;SDS011;38120;53.176;6.614;2023-05-10T02:10:01;11.65;;;7.82;;
52126;SDS011;38120;53.176;6.614;2023-05-10T02:12:29;13.35;;;8.02;;
52126;SDS011;38120;53.176;6.614;2023-05-10T02:14:59;11.43;;;7.50;;
52126;SDS011;38120;53.176;6.614;2023-05-10T02:17:30;12.52;;;8.10;;
52126;SDS011;38120;53.176;6.614;2023-05-10T02:19:57;12.70;;;7.78;;
52126;SDS011;38120;53.176;6.614;2023-05-10T02:22:25;12.05;;;8.25;;
52126;SDS011;38120;53.176;6.614;2023-05-10T02:24:53;12.82;;;8.52;;
52126;SDS011;38120;53.176;6.614;2023-05-10T02:27:20;11.55;;;8.07;;
52126;SDS011;38120;53.176;6.614;2023-05-10T02:29:48;13.27;;;8.15;;
52126;SDS011;38120;53.176;6.614;2023-05-10T02:32:15;11.32;;;7.60;;
52126;SDS011;38120;53.176;6.614;2023-05-10T02:34:42;11.93;;;8.30;;
52126;SDS011;38120;53.176;6.614;2023-05-10T02:37:10;11.57;;;7.60;;
52126;SDS011;38120;53.176;6.614;2023-05-10T02:39:38;11.32;;;7.70;;
52126;SDS011;38120;53.176;6.614;2023-05-10T02:42:08;10.57;;;6.75;;
52126;SDS011;38120;53.176;6.614;2023-05-10T02:44:39;11.65;;;7.32;;
52126;SDS011;38120;53.176;6.614;2023-05-10T02:47:07;10.07;;;7.75;;
52126;SDS011;38120;53.176;6.614;2023-05-10T02:49:32;11.20;;;7.72;;
52126;SDS011;38120;53.176;6.614;2023-05-10T02:52:00;11.88;;;7.88;;
52126;SDS011;38120;53.176;6.614;2023-05-10T02:54:29;11.75;;;7.65;;
52126;SDS011;38120;53.176;6.614;2023-05-10T02:56:58;10.10;;;7.53;;
52126;SDS011;38120;53.176;6.614;2023-05-10T02:59:26;13.32;;;8.55;;
52126;SDS011;38120;53.176;6.614;2023-05-10T03:01:52;14.00;;;8.80;;
52126;SDS011;38120;53.176;6.614;2023-05-10T03:04:18;12.70;;;8.83;;
52126;SDS011;38120;53.176;6.614;2023-05-10T03:06:43;12.48;;;7.68;;
52126;SDS011;38120;53.176;6.614;2023-05-10T03:09:09;11.50;;;7.80;;
52126;SDS011;38120;53.176;6.614;2023-05-10T03:17:10;13.82;;;8.90;;
52126;SDS011;38120;53.176;6.614;2023-05-10T03:19:43;13.65;;;8.52;;
52126;SDS011;38120;53.176;6.614;2023-05-10T03:24:48;12.98;;;9.38;;
52126;SDS011;38120;53.176;6.614;2023-05-10T03:27:14;14.98;;;10.07;;
52126;SDS011;38120;53.176;6.614;2023-05-10T03:29:40;16.63;;;10.20;;
52126;SDS011;38120;53.176;6.614;2023-05-10T03:32:08;17.73;;;9.98;;
52126;SDS011;38120;53.176;6.614;2023-05-10T03:34:34;17.00;;;10.50;;
52126;SDS011;38120;53.176;6.614;2023-05-10T03:37:07;19.90;;;11.38;;
52126;SDS011;38120;53.176;6.614;2023-05-10T03:39:33;17.70;;;11.63;;
52126;SDS011;38120;53.176;6.614;2023-05-10T03:41:59;18.60;;;11.30;;
52126;SDS011;38120;53.176;6.614;2023-05-10T03:44:24;17.02;;;11.18;;
52126;SDS011;38120;53.176;6.614;2023-05-10T03:46:50;18.07;;;11.07;;
52126;SDS011;38120;53.176;6.614;2023-05-10T03:49:15;21.80;;;12.13;;
52126;SDS011;38120;53.176;6.614;2023-05-10T03:51:41;19.55;;;11.77;;
52126;SDS011;38120;53.176;6.614;2023-05-10T03:54:07;18.67;;;13.10;;
52126;SDS011;38120;53.176;6.614;2023-05-10T03:56:32;21.37;;;13.13;;
52126;SDS011;38120;53.176;6.614;2023-05-10T03:58:58;21.70;;;13.47;;
52126;SDS011;38120;53.176;6.614;2023-05-10T04:01:24;30.23;;;12.55;;
52126;SDS011;38120;53.176;6.614;2023-05-10T04:03:49;22.87;;;13.57;;
52126;SDS011;38120;53.176;6.614;2023-05-10T04:06:15;24.52;;;13.02;;
52126;SDS011;38120;53.176;6.614;2023-05-10T04:08:41;19.35;;;10.70;;
52126;SDS011;38120;53.176;6.614;2023-05-10T04:13:33;22.20;;;13.73;;
52126;SDS011;38120;53.176;6.614;2023-05-10T04:15:59;23.10;;;13.00;;
52126;SDS011;38120;53.176;6.614;2023-05-10T04:18:24;22.63;;;13.80;;
52126;SDS011;38120;53.176;6.614;2023-05-10T04:20:50;27.90;;;15.07;;
52126;SDS011;38120;53.176;6.614;2023-05-10T04:23:16;19.93;;;13.60;;
52126;SDS011;38120;53.176;6.614;2023-05-10T04:25:42;23.07;;;13.27;;
52126;SDS011;38120;53.176;6.614;2023-05-10T04:28:07;21.33;;;13.15;;
52126;SDS011;38120;53.176;6.614;2023-05-10T04:30:33;20.27;;;12.15;;
52126;SDS011;38120;53.176;6.614;2023-05-10T04:33:00;18.58;;;10.43;;
52126;SDS011;38120;53.176;6.614;2023-05-10T04:35:27;20.52;;;13.52;;
52126;SDS011;38120;53.176;6.614;2023-05-10T04:37:53;17.70;;;12.50;;
52126;SDS011;38120;53.176;6.614;2023-05-10T04:40:19;17.80;;;11.13;;
52126;SDS011;38120;53.176;6.614;2023-05-10T04:42:45;17.27;;;11.05;;
52126;SDS011;38120;53.176;6.614;2023-05-10T04:45:11;16.92;;;11.10;;
52126;SDS011;38120;53.176;6.614;2023-05-10T04:47:37;13.05;;;6.53;;
52126;SDS011;38120;53.176;6.614;2023-05-10T04:50:03;13.40;;;8.18;;
52126;SDS011;38120;53.176;6.614;2023-05-10T04:52:29;9.63;;;6.38;;
52126;SDS011;38120;53.176;6.614;2023-05-10T04:54:55;8.23;;;5.90;;
52126;SDS011;38120;53.176;6.614;2023-05-10T04:57:21;8.00;;;4.35;;
52126;SDS011;38120;53.176;6.614;2023-05-10T04:59:47;7.90;;;5.65;;
52126;SDS011;38120;53.176;6.614;2023-05-10T05:02:13;7.25;;;4.28;;
52126;SDS011;38120;53.176;6.614;2023-05-10T05:04:38;6.07;;;3.22;;
52126;SDS011;38120;53.176;6.614;2023-05-10T05:07:04;5.93;;;3.53;;
52126;SDS011;38120;53.176;6.614;2023-05-10T05:09:30;5.60;;;3.40;;
52126;SDS011;38120;53.176;6.614;2023-05-10T05:11:57;5.68;;;3.35;;
52126;SDS011;38120;53.176;6.614;2023-05-10T05:14:23;5.70;;;3.42;;
52126;SDS011;38120;53.176;6.614;2023-05-10T05:16:50;4.95;;;2.97;;
52126;SDS011;38120;53.176;6.614;2023-05-10T05:19:17;5.95;;;3.33;;
52126;SDS011;38120;53.176;6.614;2023-05-10T05:21:43;5.47;;;3.47;;
52126;SDS011;38120;53.176;6.614;2023-05-10T05:24:08;5.95;;;3.72;;
52126;SDS011;38120;53.176;6.614;2023-05-10T05:26:35;5.30;;;3.20;;
52126;SDS011;38120;53.176;6.614;2023-05-10T05:29:01;5.80;;;3.97;;
52126;SDS011;38120;53.176;6.614;2023-05-10T05:31:28;4.60;;;2.67;;
52126;SDS011;38120;53.176;6.614;2023-05-10T05:33:54;5.15;;;3.40;;
52126;SDS011;38120;53.176;6.614;2023-05-10T05:36:20;7.40;;;3.47;;
52126;SDS011;38120;53.176;6.614;2023-05-10T05:38:46;5.93;;;3.13;;
52126;SDS011;38120;53.176;6.614;2023-05-10T05:41:12;7.78;;;3.67;;
52126;SDS011;38120;53.176;6.614;2023-05-10T05:43:37;5.55;;;3.42;;
52126;SDS011;38120;53.176;6.614;2023-05-10T05:46:03;5.55;;;3.72;;
52126;SDS011;38120;53.176;6.614;2023-05-10T05:48:30;9.60;;;4.13;;
52126;SDS011;38120;53.176;6.614;2023-05-10T05:50:56;6.78;;;4.10;;
52126;SDS011;38120;53.176;6.614;2023-05-10T05:53:22;7.20;;;3.88;;
52126;SDS011;38120;53.176;6.614;2023-05-10T05:55:52;6.85;;;4.00;;
52126;SDS011;38120;53.176;6.614;2023-05-10T05:58:19;6.80;;;4.03;;
52126;SDS011;38120;53.176;6.614;2023-05-10T06:00:45;6.70;;;3.65;;
52126;SDS011;38120;53.176;6.614;2023-05-10T06:03:10;6.27;;;3.50;;
52126;SDS011;38120;53.176;6.614;2023-05-10T06:05:36;8.88;;;3.80;;
52126;SDS011;38120;53.176;6.614;2023-05-10T06:08:02;8.00;;;4.77;;
52126;SDS011;38120;53.176;6.614;2023-05-10T06:10:28;7.38;;;4.13;;
52126;SDS011;38120;53.176;6.614;2023-05-10T06:12:53;8.77;;;4.68;;
52126;SDS011;38120;53.176;6.614;2023-05-10T06:15:19;8.10;;;4.13;;
52126;SDS011;38120;53.176;6.614;2023-05-10T06:17:45;7.43;;;4.90;;
52126;SDS011;38120;53.176;6.614;2023-05-10T06:20:12;8.45;;;4.25;;
52126;SDS011;38120;53.176;6.614;2023-05-10T06:22:38;5.95;;;3.55;;
52126;SDS011;38120;53.176;6.614;2023-05-10T06:25:04;7.13;;;3.92;;
52126;SDS011;38120;53.176;6.614;2023-05-10T06:27:30;5.95;;;3.30;;
52126;SDS011;38120;53.176;6.614;2023-05-10T06:29:55;5.10;;;2.60;;
52126;SDS011;38120;53.176;6.614;2023-05-10T06:32:21;4.63;;;2.10;;
52126;SDS011;38120;53.176;6.614;2023-05-10T06:34:47;2.97;;;1.63;;
52126;SDS011;38120;53.176;6.614;2023-05-10T06:37:12;3.50;;;1.92;;
52126;SDS011;38120;53.176;6.614;2023-05-10T06:39:43;5.57;;;2.63;;
52126;SDS011;38120;53.176;6.614;2023-05-10T06:42:09;4.13;;;2.28;;
52126;SDS011;38120;53.176;6.614;2023-05-10T06:44:35;4.63;;;2.93;;
52126;SDS011;38120;53.176;6.614;2023-05-10T06:47:01;5.53;;;3.33;;
52126;SDS011;38120;53.176;6.614;2023-05-10T06:49:26;7.50;;;4.00;;
52126;SDS011;38120;53.176;6.614;2023-05-10T06:51:52;7.75;;;5.22;;
52126;SDS011;38120;53.176;6.614;2023-05-10T06:54:18;11.35;;;5.38;;
52126;SDS011;38120;53.176;6.614;2023-05-10T06:56:44;11.93;;;7.20;;
52126;SDS011;38120;53.176;6.614;2023-05-10T06:59:10;10.02;;;5.93;;
52126;SDS011;38120;53.176;6.614;2023-05-10T07:01:35;9.90;;;5.07;;
52126;SDS011;38120;53.176;6.614;2023-05-10T07:04:01;8.17;;;4.93;;
52126;SDS011;38120;53.176;6.614;2023-05-10T07:06:27;9.45;;;5.18;;
52126;SDS011;38120;53.176;6.614;2023-05-10T07:11:19;7.72;;;4.88;;
52126;SDS011;38120;53.176;6.614;2023-05-10T07:13:45;7.05;;;3.72;;
52126;SDS011;38120;53.176;6.614;2023-05-10T07:16:11;7.05;;;3.97;;
52126;SDS011;38120;53.176;6.614;2023-05-10T07:18:37;7.85;;;3.83;;
52126;SDS011;38120;53.176;6.614;2023-05-10T07:21:03;6.00;;;3.00;;
52126;SDS011;38120;53.176;6.614;2023-05-10T07:23:28;7.22;;;3.95;;
52126;SDS011;38120;53.176;6.614;2023-05-10T07:25:54;5.03;;;3.03;;
52126;SDS011;38120;53.176;6.614;2023-05-10T07:28:22;4.47;;;2.80;;
52126;SDS011;38120;53.176;6.614;2023-05-10T07:30:49;5.30;;;3.03;;
52126;SDS011;38120;53.176;6.614;2023-05-10T07:33:15;7.00;;;3.10;;
52126;SDS011;38120;53.176;6.614;2023-05-10T07:35:41;5.20;;;2.83;;
52126;SDS011;38120;53.176;6.614;2023-05-10T07:40:33;4.18;;;2.35;;
52126;SDS011;38120;53.176;6.614;2023-05-10T07:42:59;6.10;;;2.92;;
52126;SDS011;38120;53.176;6.614;2023-05-10T07:45:26;4.40;;;2.70;;
52126;SDS011;38120;53.176;6.614;2023-05-10T07:47:52;5.50;;;3.00;;
52126;SDS011;38120;53.176;6.614;2023-05-10T07:50:18;6.35;;;3.67;;
52126;SDS011;38120;53.176;6.614;2023-05-10T07:52:46;5.25;;;3.13;;
52126;SDS011;38120;53.176;6.614;2023-05-10T07:55:12;7.53;;;3.55;;
52126;SDS011;38120;53.176;6.614;2023-05-10T07:57:38;6.20;;;3.40;;
52126;SDS011;38120;53.176;6.614;2023-05-10T08:00:04;4.15;;;2.63;;
52126;SDS011;38120;53.176;6.614;2023-05-10T08:02:30;5.57;;;3.05;;
52126;SDS011;38120;53.176;6.614;2023-05-10T08:04:56;4.90;;;3.00;;
52126;SDS011;38120;53.176;6.614;2023-05-10T08:07:22;3.87;;;2.40;;
52126;SDS011;38120;53.176;6.614;2023-05-10T08:09:49;4.10;;;2.38;;
52126;SDS011;38120;53.176;6.614;2023-05-10T08:12:15;5.15;;;3.35;;
52126;SDS011;38120;53.176;6.614;2023-05-10T08:14:41;5.32;;;3.38;;
52126;SDS011;38120;53.176;6.614;2023-05-10T08:17:06;6.47;;;3.20;;
52126;SDS011;38120;53.176;6.614;2023-05-10T08:19:32;5.40;;;3.50;;
52126;SDS011;38120;53.176;6.614;2023-05-10T08:21:58;7.13;;;3.70;;
52126;SDS011;38120;53.176;6.614;2023-05-10T08:24:23;6.40;;;3.40;;
52126;SDS011;38120;53.176;6.614;2023-05-10T08:26:49;5.18;;;3.13;;
52126;SDS011;38120;53.176;6.614;2023-05-10T08:29:15;7.17;;;3.97;;
52126;SDS011;38120;53.176;6.614;2023-05-10T08:31:41;5.85;;;4.00;;
52126;SDS011;38120;53.176;6.614;2023-05-10T08:34:07;5.60;;;3.37;;
52126;SDS011;38120;53.176;6.614;2023-05-10T08:36:32;5.75;;;4.22;;
52126;SDS011;38120;53.176;6.614;2023-05-10T08:38:58;7.07;;;3.70;;
52126;SDS011;38120;53.176;6.614;2023-05-10T08:41:26;5.97;;;3.13;;
52126;SDS011;38120;53.176;6.614;2023-05-10T08:43:53;5.57;;;3.17;;
52126;SDS011;38120;53.176;6.614;2023-05-10T08:46:20;8.07;;;3.53;;
52126;SDS011;38120;53.176;6.614;2023-05-10T08:48:47;5.03;;;2.67;;
52126;SDS011;38120;53.176;6.614;2023-05-10T08:51:14;5.45;;;3.15;;
52126;SDS011;38120;53.176;6.614;2023-05-10T08:53:45;5.05;;;2.88;;
52126;SDS011;38120;53.176;6.614;2023-05-10T08:56:11;5.38;;;3.08;;
52126;SDS011;38120;53.176;6.614;2023-05-10T08:58:37;5.95;;;3.15;;
52126;SDS011;38120;53.176;6.614;2023-05-10T09:03:30;5.43;;;3.22;;
52126;SDS011;38120;53.176;6.614;2023-05-10T09:05:56;6.35;;;3.80;;
52126;SDS011;38120;53.176;6.614;2023-05-10T09:08:25;6.85;;;3.80;;
52126;SDS011;38120;53.176;6.614;2023-05-10T09:10:51;6.57;;;3.90;;
52126;SDS011;38120;53.176;6.614;2023-05-10T09:13:19;6.63;;;4.22;;
52126;SDS011;38120;53.176;6.614;2023-05-10T09:15:46;7.57;;;3.80;;
52126;SDS011;38120;53.176;6.614;2023-05-10T09:20:39;6.47;;;3.55;;
52126;SDS011;38120;53.176;6.614;2023-05-10T09:23:05;7.35;;;3.50;;
52126;SDS011;38120;53.176;6.614;2023-05-10T09:25:31;6.03;;;3.53;;
52126;SDS011;38120;53.176;6.614;2023-05-10T09:27:59;6.53;;;3.72;;
52126;SDS011;38120;53.176;6.614;2023-05-10T09:32:51;5.97;;;2.78;;
52126;SDS011;38120;53.176;6.614;2023-05-10T09:35:19;9.25;;;3.97;;
52126;SDS011;38120;53.176;6.614;2023-05-10T09:37:47;7.03;;;3.97;;
52126;SDS011;38120;53.176;6.614;2023-05-10T09:40:17;8.52;;;3.80;;
52126;SDS011;38120;53.176;6.614;2023-05-10T09:42:57;7.93;;;4.03;;
52126;SDS011;38120;53.176;6.614;2023-05-10T09:45:32;6.10;;;3.42;;
52126;SDS011;38120;53.176;6.614;2023-05-10T09:48:00;6.60;;;3.88;;
52126;SDS011;38120;53.176;6.614;2023-05-10T09:50:27;7.35;;;3.33;;
52126;SDS011;38120;53.176;6.614;2023-05-10T09:55:23;6.47;;;3.67;;
52126;SDS011;38120;53.176;6.614;2023-05-10T09:57:58;6.70;;;4.00;;
52126;SDS011;38120;53.176;6.614;2023-05-10T10:00:25;9.45;;;4.57;;
52126;SDS011;38120;53.176;6.614;2023-05-10T10:02:55;7.30;;;3.95;;
52126;SDS011;38120;53.176;6.614;2023-05-10T10:05:28;6.80;;;4.32;;
52126;SDS011;38120;53.176;6.614;2023-05-10T10:07:57;10.10;;;4.70;;
52126;SDS011;38120;53.176;6.614;2023-05-10T10:10:25;9.65;;;5.00;;
52126;SDS011;38120;53.176;6.614;2023-05-10T10:12:51;7.47;;;4.20;;
52126;SDS011;38120;53.176;6.614;2023-05-10T10:15:17;8.60;;;5.43;;
52126;SDS011;38120;53.176;6.614;2023-05-10T10:17:44;7.72;;;4.72;;
52126;SDS011;38120;53.176;6.614;2023-05-10T10:20:11;7.97;;;4.30;;
52126;SDS011;38120;53.176;6.614;2023-05-10T10:22:37;7.05;;;4.50;;
52126;SDS011;38120;53.176;6.614;2023-05-10T10:25:03;8.55;;;5.40;;
52126;SDS011;38120;53.176;6.614;2023-05-10T10:35:47;7.63;;;4.78;;
52126;SDS011;38120;53.176;6.614;2023-05-10T10:38:14;8.25;;;3.95;;
52126;SDS011;38120;53.176;6.614;2023-05-10T10:40:41;8.20;;;3.83;;
52126;SDS011;38120;53.176;6.614;2023-05-10T10:43:23;8.55;;;4.47;;
52126;SDS011;38120;53.176;6.614;2023-05-10T10:48:49;9.63;;;5.43;;
52126;SDS011;38120;53.176;6.614;2023-05-10T10:51:18;7.90;;;4.60;;
52126;SDS011;38120;53.176;6.614;2023-05-10T10:53:44;11.77;;;5.38;;
52126;SDS011;38120;53.176;6.614;2023-05-10T10:56:13;10.75;;;4.65;;
52126;SDS011;38120;53.176;6.614;2023-05-10T10:58:40;8.05;;;4.80;;
52126;SDS011;38120;53.176;6.614;2023-05-10T11:03:37;9.45;;;5.03;;
52126;SDS011;38120;53.176;6.614;2023-05-10T11:06:02;8.73;;;5.18;;
52126;SDS011;38120;53.176;6.614;2023-05-10T11:08:29;8.30;;;4.15;;
52126;SDS011;38120;53.176;6.614;2023-05-10T11:13:32;8.93;;;6.00;;
52126;SDS011;38120;53.176;6.614;2023-05-10T11:16:13;7.95;;;5.07;;
52126;SDS011;38120;53.176;6.614;2023-05-10T11:18:41;10.20;;;4.78;;
52126;SDS011;38120;53.176;6.614;2023-05-10T11:21:27;8.70;;;5.43;;
52126;SDS011;38120;53.176;6.614;2023-05-10T11:23:55;13.07;;;5.93;;
52126;SDS011;38120;53.176;6.614;2023-05-10T11:26:25;8.15;;;4.63;;
52126;SDS011;38120;53.176;6.614;2023-05-10T11:28:55;6.97;;;4.82;;
52126;SDS011;38120;53.176;6.614;2023-05-10T11:31:20;7.97;;;4.35;;
52126;SDS011;38120;53.176;6.614;2023-05-10T11:33:50;9.38;;;4.90;;
52126;SDS011;38120;53.176;6.614;2023-05-10T11:36:27;7.93;;;5.50;;
52126;SDS011;38120;53.176;6.614;2023-05-10T11:38:54;10.52;;;5.25;;
52126;SDS011;38120;53.176;6.614;2023-05-10T11:41:21;13.10;;;5.20;;
52126;SDS011;38120;53.176;6.614;2023-05-10T11:43:52;7.65;;;4.80;;
52126;SDS011;38120;53.176;6.614;2023-05-10T11:46:22;9.23;;;5.63;;
52126;SDS011;38120;53.176;6.614;2023-05-10T11:48:50;10.07;;;5.32;;
52126;SDS011;38120;53.176;6.614;2023-05-10T11:51:21;11.63;;;5.97;;
52126;SDS011;38120;53.176;6.614;2023-05-10T11:53:48;9.50;;;5.90;;
52126;SDS011;38120;53.176;6.614;2023-05-10T11:56:15;12.30;;;5.88;;
52126;SDS011;38120;53.176;6.614;2023-05-10T11:58:41;9.35;;;5.57;;
52126;SDS011;38120;53.176;6.614;2023-05-10T12:01:07;10.80;;;6.43;;
52126;SDS011;38120;53.176;6.614;2023-05-10T12:03:34;11.88;;;6.47;;
52126;SDS011;38120;53.176;6.614;2023-05-10T12:06:01;13.82;;;6.13;;
52126;SDS011;38120;53.176;6.614;2023-05-10T12:08:28;11.35;;;6.07;;
52126;SDS011;38120;53.176;6.614;2023-05-10T12:11:06;9.02;;;5.28;;
52126;SDS011;38120;53.176;6.614;2023-05-10T12:13:37;10.88;;;6.07;;
52126;SDS011;38120;53.176;6.614;2023-05-10T12:16:18;12.52;;;6.85;;
52126;SDS011;38120;53.176;6.614;2023-05-10T12:18:48;10.90;;;5.82;;
52126;SDS011;38120;53.176;6.614;2023-05-10T12:21:16;13.10;;;7.38;;
52126;SDS011;38120;53.176;6.614;2023-05-10T12:23:44;10.70;;;6.32;;
52126;SDS011;38120;53.176;6.614;2023-05-10T12:26:12;11.82;;;6.35;;
52126;SDS011;38120;53.176;6.614;2023-05-10T12:28:37;10.45;;;5.82;;
52126;SDS011;38120;53.176;6.614;2023-05-10T12:31:05;12.05;;;6.20;;
52126;SDS011;38120;53.176;6.614;2023-05-10T12:33:35;12.90;;;6.38;;
52126;SDS011;38120;53.176;6.614;2023-05-10T12:36:04;11.90;;;6.60;;
52126;SDS011;38120;53.176;6.614;2023-05-10T12:38:34;15.88;;;7.22;;
52126;SDS011;38120;53.176;6.614;2023-05-10T12:41:04;13.27;;;6.88;;
52126;SDS011;38120;53.176;6.614;2023-05-10T12:43:34;12.55;;;7.10;;
52126;SDS011;38120;53.176;6.614;2023-05-10T12:48:33;10.40;;;6.30;;
52126;SDS011;38120;53.176;6.614;2023-05-10T12:50:59;12.27;;;6.40;;
52126;SDS011;38120;53.176;6.614;2023-05-10T12:53:26;10.57;;;6.65;;
52126;SDS011;38120;53.176;6.614;2023-05-10T12:55:52;10.90;;;6.55;;
52126;SDS011;38120;53.176;6.614;2023-05-10T12:58:18;9.38;;;5.32;;
52126;SDS011;38120;53.176;6.614;2023-05-10T13:00:44;12.18;;;6.72;;
52126;SDS011;38120;53.176;6.614;2023-05-10T13:03:10;10.93;;;6.18;;
52126;SDS011;38120;53.176;6.614;2023-05-10T13:05:35;10.45;;;5.57;;
52126;SDS011;38120;53.176;6.614;2023-05-10T13:08:01;11.18;;;6.72;;
52126;SDS011;38120;53.176;6.614;2023-05-10T13:10:30;9.77;;;5.85;;
52126;SDS011;38120;53.176;6.614;2023-05-10T13:12:57;9.57;;;5.63;;
52126;SDS011;38120;53.176;6.614;2023-05-10T13:15:24;11.02;;;6.28;;
52126;SDS011;38120;53.176;6.614;2023-05-10T13:17:50;11.90;;;6.15;;
52126;SDS011;38120;53.176;6.614;2023-05-10T13:20:16;13.70;;;7.22;;
52126;SDS011;38120;53.176;6.614;2023-05-10T13:22:43;8.68;;;5.45;;
52126;SDS011;38120;53.176;6.614;2023-05-10T13:25:09;11.25;;;5.60;;
52126;SDS011;38120;53.176;6.614;2023-05-10T13:27:35;10.88;;;6.40;;
52126;SDS011;38120;53.176;6.614;2023-05-10T13:30:01;10.65;;;6.35;;
52126;SDS011;38120;53.176;6.614;2023-05-10T13:32:28;10.10;;;5.88;;
52126;SDS011;38120;53.176;6.614;2023-05-10T13:34:54;10.27;;;6.07;;
52126;SDS011;38120;53.176;6.614;2023-05-10T13:37:20;9.95;;;6.38;;
52126;SDS011;38120;53.176;6.614;2023-05-10T13:39:46;10.32;;;6.15;;
52126;SDS011;38120;53.176;6.614;2023-05-10T13:42:12;11.80;;;7.10;;
52126;SDS011;38120;53.176;6.614;2023-05-10T13:44:38;12.40;;;7.38;;
52126;SDS011;38120;53.176;6.614;2023-05-10T13:47:04;12.65;;;6.28;;
52126;SDS011;38120;53.176;6.614;2023-05-10T13:49:30;11.80;;;7.07;;
52126;SDS011;38120;53.176;6.614;2023-05-10T13:51:56;11.63;;;6.68;;
52126;SDS011;38120;53.176;6.614;2023-05-10T13:54:23;12.27;;;6.40;;
52126;SDS011;38120;53.176;6.614;2023-05-10T13:56:48;10.70;;;6.43;;
52126;SDS011;38120;53.176;6.614;2023-05-10T13:59:14;11.35;;;6.72;;
52126;SDS011;38120;53.176;6.614;2023-05-10T14:01:40;11.65;;;7.25;;
52126;SDS011;38120;53.176;6.614;2023-05-10T14:04:08;10.70;;;6.50;;
52126;SDS011;38120;53.176;6.614;2023-05-10T14:06:35;11.85;;;6.35;;
52126;SDS011;38120;53.176;6.614;2023-05-10T14:11:28;11.43;;;6.50;;
52126;SDS011;38120;53.176;6.614;2023-05-10T14:13:54;11.00;;;7.30;;
52126;SDS011;38120;53.176;6.614;2023-05-10T14:16:20;11.15;;;6.78;;
52126;SDS011;38120;53.176;6.614;2023-05-10T14:18:46;11.52;;;6.53;;
52126;SDS011;38120;53.176;6.614;2023-05-10T14:21:11;10.30;;;5.78;;
52126;SDS011;38120;53.176;6.614;2023-05-10T14:23:38;11.20;;;6.07;;
52126;SDS011;38120;53.176;6.614;2023-05-10T14:26:04;9.15;;;5.65;;
52126;SDS011;38120;53.176;6.614;2023-05-10T14:28:29;11.45;;;5.88;;
52126;SDS011;38120;53.176;6.614;2023-05-10T14:30:55;12.43;;;6.40;;
52126;SDS011;38120;53.176;6.614;2023-05-10T14:33:21;10.00;;;6.38;;
52126;SDS011;38120;53.176;6.614;2023-05-10T14:35:46;11.43;;;6.30;;
52126;SDS011;38120;53.176;6.614;2023-05-10T14:38:13;13.30;;;7.00;;
52126;SDS011;38120;53.176;6.614;2023-05-10T14:43:04;12.85;;;6.13;;
52126;SDS011;38120;53.176;6.614;2023-05-10T14:45:30;12.52;;;7.28;;
52126;SDS011;38120;53.176;6.614;2023-05-10T14:47:57;11.80;;;6.80;;
52126;SDS011;38120;53.176;6.614;2023-05-10T14:52:48;11.73;;;6.63;;
52126;SDS011;38120;53.176;6.614;2023-05-10T14:57:40;11.73;;;7.35;;
52126;SDS011;38120;53.176;6.614;2023-05-10T15:00:06;13.82;;;7.65;;
52126;SDS011;38120;53.176;6.614;2023-05-10T15:02:34;13.40;;;7.63;;
52126;SDS011;38120;53.176;6.614;2023-05-10T15:04:59;13.15;;;6.80;;
52126;SDS011;38120;53.176;6.614;2023-05-10T15:07:25;17.27;;;7.50;;
52126;SDS011;38120;53.176;6.614;2023-05-10T15:09:51;12.10;;;7.75;;
52126;SDS011;38120;53.176;6.614;2023-05-10T15:12:17;12.55;;;7.65;;
52126;SDS011;38120;53.176;6.614;2023-05-10T15:17:08;11.73;;;7.00;;
52126;SDS011;38120;53.176;6.614;2023-05-10T15:19:35;16.63;;;7.78;;
52126;SDS011;38120;53.176;6.614;2023-05-10T15:22:01;11.15;;;7.43;;
52126;SDS011;38120;53.176;6.614;2023-05-10T15:24:27;9.35;;;5.80;;
52126;SDS011;38120;53.176;6.614;2023-05-10T15:26:53;11.45;;;6.85;;
52126;SDS011;38120;53.176;6.614;2023-05-10T15:29:19;11.65;;;6.18;;
52126;SDS011;38120;53.176;6.614;2023-05-10T15:31:48;14.23;;;7.28;;
52126;SDS011;38120;53.176;6.614;2023-05-10T15:34:15;11.45;;;6.72;;
52126;SDS011;38120;53.176;6.614;2023-05-10T15:36:41;13.70;;;7.57;;
52126;SDS011;38120;53.176;6.614;2023-05-10T15:39:07;11.80;;;7.38;;
52126;SDS011;38120;53.176;6.614;2023-05-10T15:41:34;10.88;;;6.57;;
52126;SDS011;38120;53.176;6.614;2023-05-10T15:44:00;12.05;;;6.63;;
52126;SDS011;38120;53.176;6.614;2023-05-10T15:46:26;11.65;;;7.38;;
52126;SDS011;38120;53.176;6.614;2023-05-10T15:48:53;12.75;;;8.05;;
52126;SDS011;38120;53.176;6.614;2023-05-10T15:51:18;11.68;;;7.32;;
52126;SDS011;38120;53.176;6.614;2023-05-10T15:53:44;16.33;;;8.07;;